x

9449880 - Friday Harbor, Wa (frdw1) Weather Station

11:36 - Wed 18th Jan 2017 All times are PST. -8 hours from GMT.

  • Wind
  • Sea Temp 46°f
  • Ar Temp 45°f
  • Sea Pressure 991.7mb
  • 9449880 - Friday Harbor, Wa
  • 9449880 - Friday Harbor, Wa

More Historic Weather Station data

Upgrade to MSW Pro to gain access to the past 30 days of data for over 8000 Wavebouys and Weather Stations around the globe.

Join Pro

Comparision Forecast

View Surf forecast
   
Qua 01/18 11:36  -  2 mph 991.7mb 46f 45f
11:30  -  7 mph 991.6mb 46f 45f
11:24 5 10 mph 991.6mb 46f 46f
11:18 5 11 mph 991.5mb 46f 46f
11:12 8 13 mph 991.4mb 46f 46f
11:06 6 13 mph 991.2mb 46f 46f
11:00 7 10 mph 991mb 46f 46f
10:36 14 21 mph 990.4mb 46f 47f
10:30 15 22 mph 990.3mb 46f 47f
10:24 8 13 mph 990.2mb 46f 46f
10:18 9 16 mph 990.1mb 46f 46f
10:12 9 14 mph 990mb 46f 46f
10:06 10 15 mph 989.9mb 46f 47f
10:00 8 14 mph 989.8mb 46f 47f
9:36 8 11 mph 989.5mb 46f 46f
9:30 9 13 mph 989.4mb 46f 46f
9:24 9 11 mph 989.4mb 46f 46f
9:18 7 10 mph 989.3mb 46f 46f
9:12 7 13 mph 989.4mb 46f 46f
9:06 7 13 mph 989.6mb 46f 46f
9:00 7 10 mph 989.5mb 46f 46f
8:36 7 10 mph 989.7mb 46f 46f
8:30 6 9 mph 989.7mb 46f 47f
8:24 6 9 mph 989.6mb 46f 47f
8:18 9 13 mph 989.6mb 46f 47f
8:12 6 8 mph 989.5mb 46f 47f
8:06 2 5 mph 989.4mb 46f 47f
8:00 2 5 mph 989.3mb 46f 47f
7:36 3 7 mph 989.3mb 46f 47f
7:30  -  2 mph 989.4mb 46f 47f
7:24 2 5 mph 989.3mb 46f 47f
7:18 2 3 mph 989.3mb 46f 47f
7:12 3 5 mph 989.3mb 46f 47f
7:06 3 6 mph 989.4mb 46f 47f
7:00 3 6 mph 989.5mb 46f 47f
6:36 6 8 mph 989.8mb 46f 47f
6:30 6 7 mph 989.8mb 46f 48f
6:24 7 9 mph 989.9mb 46f 48f
6:18 6 9 mph 989.9mb 46f 48f
6:12 6 8 mph 989.9mb 46f 48f
6:06 6 8 mph 989.9mb 46f 48f
6:00 6 7 mph 989.9mb 46f 48f
5:36 6 7 mph 990.1mb 46f 49f
5:30 6 9 mph 990.2mb 46f 49f
5:24 5 7 mph 990.4mb 46f 50f
5:18 5 9 mph 990.3mb 46f 50f
5:12 6 10 mph 990.3mb 46f 50f
5:06 6 14 mph 990.2mb 46f 51f
5:00 7 10 mph 990.3mb 46f 51f
4:36 7 15 mph 990.5mb 46f 51f
4:30 6 11 mph 990.6mb 46f 51f
4:24 7 14 mph 990.6mb 46f 51f
4:18 7 13 mph 990.6mb 46f 51f
4:12 7 15 mph 990.5mb 46f 51f
4:06 10 16 mph 990.4mb 46f 51f
4:00 9 15 mph 990.3mb 46f 52f
3:36 11 17 mph 990.9mb 46f 52f
3:30 10 15 mph 991mb 46f 52f
3:24 9 17 mph 991mb 46f 52f
3:18 14 18 mph 991mb 46f 52f
3:12 10 18 mph 991mb 46f 52f
3:06 11 17 mph 990.9mb 46f 52f
3:00 9 14 mph 991mb 46f 52f
2:36 11 17 mph 991.2mb 46f 52f
2:30 13 22 mph 991.2mb 46f 52f
2:24 10 23 mph 991.3mb 46f 52f
2:18 11 20 mph 991.3mb 46f 52f
2:12 10 20 mph 991.2mb 46f 52f
2:06 14 18 mph 991.3mb 46f 53f
2:00 13 22 mph 991.5mb 46f 52f
1:36 13 21 mph 991.7mb 46f 52f
1:30 13 16 mph 991.5mb 46f 52f
1:24 8 16 mph 991.3mb 46f 51f
1:18 6 14 mph 990.9mb 46f 51f
1:12 11 17 mph 991.1mb 46f 51f
1:06 8 14 mph 991mb 46f 51f
1:00 9 15 mph 991.1mb 46f 51f
12:36 11 17 mph 991.5mb 46f 51f
12:30 14 18 mph 991.6mb 46f 51f
12:24 13 20 mph 991.4mb 46f 51f
12:18 13 20 mph 991.5mb 46f 51f
12:12 14 20 mph 991.6mb 46f 51f
12:06 14 20 mph 991.5mb 46f 51f
12:00 13 17 mph 991.2mb 46f 51f
11:36 15 20 mph 991.5mb 46f 51f
11:30 13 23 mph 991.4mb 46f 51f
11:24 13 18 mph 991.3mb 46f 51f
11:18 16 23 mph 991.2mb 46f 51f
11:12 15 21 mph 990.9mb 46f 51f
11:06 11 20 mph 991.1mb 46f 51f
11:00 11 20 mph 991mb 46f 51f
10:36 17 24 mph 991.1mb 46f 51f
10:30 18 24 mph 991.1mb 46f 51f
10:24 16 28 mph 991mb 46f 51f
10:18 14 22 mph 990.8mb 46f 51f
10:12 14 23 mph 990.8mb 46f 50f
10:06 15 23 mph 990.6mb 46f 50f
10:00 15 24 mph 990.3mb 46f 50f
9:36 11 18 mph 990.1mb 46f 49f
9:30 15 21 mph 990mb 46f 49f
9:24 14 20 mph 989.9mb 46f 49f
9:18 16 23 mph 990mb 46f 49f
9:12 13 20 mph 990mb 46f 49f
9:06 14 21 mph 990.2mb 46f 49f
9:00 15 21 mph 989.8mb 46f 49f
8:36 13 21 mph 990.3mb 46f 49f
8:30 15 26 mph 990.4mb 46f 49f
8:24 17 24 mph 990.4mb 46f 49f
8:18 17 24 mph 990.4mb 46f 50f
8:12 14 21 mph 990.5mb 46f 50f
8:06 10 16 mph 990.4mb 46f 50f
8:00 14 20 mph 990.2mb 46f 50f
7:36 14 21 mph 990.5mb 46f 48f
7:30 11 21 mph 990.3mb 46f 48f
7:24 14 20 mph 990.2mb 46f 48f
7:18 14 18 mph 990.4mb 46f 48f
7:12 15 20 mph 990.5mb 46f 48f
7:06 11 20 mph 990.8mb 46f 48f
7:00 14 18 mph 991mb 46f 48f
6:36 11 17 mph 991.7mb 46f 49f
6:30 10 15 mph 991.8mb 46f 49f
6:24 9 17 mph 992.1mb 46f 49f
6:18 10 21 mph 992.3mb 46f 49f
6:12 7 17 mph 992.5mb 46f 49f
6:06 11 18 mph 992.6mb 46f 49f
6:00 13 25 mph 992.7mb 46f 49f
5:36 10 20 mph 992.7mb 46f 50f
5:30 14 25 mph 992.8mb 46f 50f
5:24 13 23 mph 992.9mb 46f 50f
5:18 14 25 mph 992.9mb 46f 50f
5:12 13 23 mph 993mb 46f 50f
5:06 11 15 mph 993.1mb 46f 50f
5:00 10 22 mph 993.1mb 46f 50f
4:36 11 16 mph 993.3mb 46f 50f
4:30 13 20 mph 993.2mb 46f 50f
4:24 14 23 mph 993.5mb 46f 50f
4:18 14 20 mph 993.6mb 46f 50f
4:12 11 20 mph 993.5mb 46f 50f
4:06 10 16 mph 993.6mb 46f 50f
4:00 9 18 mph 993.6mb 46f 50f
3:36 8 17 mph 994.1mb 46f 49f
3:30 9 15 mph 994.1mb 46f 49f
3:24 13 18 mph 994.3mb 46f 50f
3:18 9 15 mph 994.4mb 46f 50f
3:12 13 17 mph 994.3mb 46f 50f
3:06 9 14 mph 994.1mb 46f 49f
3:00 9 18 mph 994.1mb 46f 49f
2:36 11 21 mph 994.3mb 46f 49f
2:30 11 20 mph 994.7mb 46f 49f
2:24 11 22 mph 994.8mb 46f 49f
2:18 14 21 mph 994.8mb 46f 49f
2:12 15 23 mph 994.5mb 46f 49f
2:06 14 22 mph 994.9mb 46f 49f
2:00 13 21 mph 994.7mb 46f 49f
1:36 15 21 mph 994.4mb 46f 49f
1:30 14 23 mph 994.7mb 46f 49f
1:24 11 22 mph 994.8mb 46f 49f
1:18 14 23 mph 994.8mb 46f 49f
1:12 9 18 mph 994.8mb 46f 49f
1:06 13 23 mph 994.8mb 46f 49f
1:00 9 17 mph 994.9mb 46f 49f
12:36 15 31 mph 995.3mb 46f 49f
12:30 15 25 mph 995.3mb 46f 49f
12:24 17 24 mph 995mb 46f 49f
12:18 18 25 mph 994.7mb 46f 49f
12:12 16 25 mph 994.9mb 46f 49f
12:06 16 21 mph 995.4mb 46f 49f
12:00 14 28 mph 995.4mb 46f 49f
Ter 01/17 11:54 16 29 mph 995.2mb 46f 49f
11:48 15 28 mph 995.1mb 46f 49f
11:36 14 24 mph 995.5mb 46f 49f
11:30 13 22 mph 995.5mb 46f 49f
11:24 13 29 mph 995.8mb 46f 49f
11:18 14 21 mph 995.4mb 46f 49f
11:12 15 24 mph 995.5mb 46f 49f
11:06 15 23 mph 995.5mb 46f 49f
11:00 14 28 mph 995.4mb 46f 49f
10:54 15 25 mph 995.3mb 46f 49f
10:48 16 28 mph 995.3mb 46f 49f
10:36 17 25 mph 994.7mb 46f 49f
10:30 15 25 mph 994.7mb 46f 49f
10:24 16 25 mph 995.1mb 46f 49f
10:18 16 25 mph 995.1mb 46f 49f
10:12 15 28 mph 995.9mb 46f 49f
10:06 16 25 mph 995.9mb 46f 49f
10:00 17 25 mph 996.1mb 46f 48f
9:54 15 23 mph 996mb 46f 48f
9:48 14 20 mph 996.3mb 46f 48f
9:36 16 26 mph 995.9mb 46f 49f
9:30 17 26 mph 995.9mb 46f 49f
9:24 17 25 mph 995.8mb 46f 49f
9:18 14 24 mph 995.7mb 46f 49f
9:12 18 29 mph 995.6mb 46f 49f
9:06 16 25 mph 995.7mb 46f 49f
9:00 14 24 mph 995.6mb 46f 49f
8:54 15 28 mph 995.3mb 46f 49f
8:48 15 23 mph 995.2mb 46f 49f
8:36 20 29 mph 995.4mb 46f 49f
8:30 15 30 mph 995.4mb 46f 49f
8:24 18 26 mph 995.3mb 46f 49f
8:18 16 26 mph 995.2mb 46f 49f
8:12 17 28 mph 995.4mb 46f 49f
8:06 18 31 mph 995.3mb 46f 49f
8:00 21 32 mph 995.4mb 46f 49f
7:54 16 26 mph 995.4mb 46f 49f
7:48 16 28 mph 995.2mb 46f 49f
7:36 18 29 mph 995.1mb 46f 49f
7:30 16 29 mph 995.3mb 46f 48f
7:24 18 28 mph 995.6mb 46f 48f
7:18 17 26 mph 995.6mb 46f 48f
7:12 15 23 mph 995.6mb 46f 48f
7:06 18 29 mph 995.3mb 46f 48f
7:00 16 25 mph 995.4mb 46f 48f
6:54 18 26 mph 995.8mb 46f 48f
6:48 20 29 mph 995.7mb 46f 48f
6:36 18 26 mph 995.7mb 46f 47f
6:30 16 26 mph 995.6mb 46f 48f
6:24 18 29 mph 995.6mb 46f 48f
6:18 20 30 mph 995.6mb 46f 48f
6:12 21 28 mph 995.6mb 46f 48f
6:06 18 34 mph 995.5mb 46f 48f
6:00 18 31 mph 995.5mb 46f 48f
5:54 17 26 mph 995.8mb 46f 48f
5:48 20 33 mph 995.9mb 46f 49f
5:36 18 25 mph 995.8mb 46f 49f
5:30 21 31 mph 995.7mb 46f 49f
5:24 21 31 mph 995.7mb 46f 49f
5:18 20 31 mph 995.9mb 46f 49f
5:12 23 38 mph 996.1mb 46f 49f
5:06 21 32 mph 996.1mb 46f 49f
5:00 17 28 mph 996.3mb 46f 48f
4:54 20 31 mph 996.2mb 46f 48f
4:48 15 31 mph 996.2mb 46f 48f
4:36 15 22 mph 996.8mb 46f 48f
4:30 14 28 mph 996.8mb 46f 47f
4:24 16 25 mph 997mb 46f 47f
4:18 16 26 mph 997mb 46f 47f
4:12 13 25 mph 997.1mb 46f 47f
4:06 18 30 mph 997.2mb 46f 48f
4:00 20 30 mph 997.4mb 46f 48f
3:54 16 29 mph 997.5mb 46f 48f
3:48 17 23 mph 997.3mb 46f 48f
3:36 20 30 mph 997.7mb 46f 48f
3:30 17 25 mph 997.7mb 46f 48f
3:24 18 28 mph 998mb 46f 48f
3:18 14 28 mph 998.5mb 46f 47f
3:12 16 30 mph 998.8mb 46f 47f
3:06 16 26 mph 998.8mb 46f 47f
3:00 16 26 mph 999.3mb 46f 48f
2:54 15 24 mph 999.4mb 46f 48f
2:48 17 28 mph 999.2mb 46f 48f
2:36 15 26 mph 999.4mb 46f 48f
2:30 20 29 mph 999.6mb 46f 48f
2:24 16 29 mph 999.9mb 46f 48f
2:18 17 28 mph 1000.2mb 46f 48f
2:12 20 30 mph 1000.5mb 46f 48f
2:06 21 28 mph 1000.7mb 46f 49f
2:00 21 31 mph 1000.7mb 46f 49f
1:54 16 25 mph 1000.7mb 46f 49f
1:48 16 25 mph 1001mb 46f 49f
1:36 10 17 mph 1001mb 46f 49f
1:30 11 18 mph 1001.2mb 46f 49f
1:24 15 21 mph 1001.4mb 46f 49f
1:18 14 24 mph 1001.7mb 46f 49f
1:12 14 23 mph 1001.8mb 46f 49f
1:06 11 21 mph 1002mb 46f 50f
1:00 16 24 mph 1002.2mb 46f 50f
12:54 16 24 mph 1002.5mb 46f 50f
12:48 14 22 mph 1002.4mb 46f 51f
12:36 15 23 mph 1002.7mb 46f 51f
12:30 15 26 mph 1002.7mb 46f 51f
12:24 15 24 mph 1002.7mb 46f 52f
12:18 14 26 mph 1002.9mb 46f 52f
12:12 17 25 mph 1002.9mb 46f 52f
12:06 16 26 mph 1003.1mb 46f 52f
12:00 14 22 mph 1003.1mb 46f 52f
11:54 16 28 mph 1003.2mb 46f 52f
11:48 14 24 mph 1003.1mb 46f 52f
11:36 16 29 mph 1003.3mb 46f 52f
11:30 17 26 mph 1003.3mb 46f 52f
11:24 17 25 mph 1003.3mb 46f 52f
11:18 17 28 mph 1003.8mb 46f 52f
11:12 14 24 mph 1003.4mb 46f 51f
11:06 17 26 mph 1003.5mb 46f 51f
11:00 17 22 mph 1003.6mb 46f 51f
10:54 16 26 mph 1003.6mb 46f 51f
10:48 16 23 mph 1003.7mb 46f 51f
10:36 16 25 mph 1003.4mb 46f 51f
10:30 15 22 mph 1003.9mb 46f 51f
10:24 15 23 mph 1003.6mb 46f 51f
10:18 14 22 mph 1003.7mb 46f 51f
10:12 14 24 mph 1003.6mb 46f 51f
10:06 17 26 mph 1003.3mb 46f 51f
10:00 15 24 mph 1003.7mb 46f 51f
9:54 18 30 mph 1003.4mb 46f 50f
9:48 20 29 mph 1003.3mb 46f 51f
9:36 17 26 mph 1003.3mb 46f 50f
9:30 16 24 mph 1003.2mb 46f 50f
9:24 20 31 mph 1003mb 46f 50f
9:18 17 30 mph 1003.3mb 46f 50f
9:12 17 28 mph 1002.9mb 46f 50f
9:06 15 33 mph 1003.2mb 46f 50f
9:00 18 33 mph 1003.4mb 46f 50f
8:54 21 29 mph 1003.3mb 46f 50f
8:48 18 28 mph 1003.3mb 46f 50f
8:36 16 30 mph 1003.4mb 46f 51f
8:30 15 23 mph 1003.4mb 46f 51f
8:24 18 29 mph 1003.7mb 46f 51f
8:18 18 28 mph 1003.5mb 46f 51f
8:12 16 28 mph 1003.5mb 46f 51f
8:06 15 25 mph 1003.6mb 46f 51f
8:00 16 28 mph 1003.6mb 46f 51f
7:54 17 33 mph 1003.6mb 46f 51f
7:48 16 26 mph 1003.6mb 46f 51f
7:36 17 24 mph 1003.7mb 46f 50f
7:30 15 24 mph 1004mb 46f 50f
7:24 14 23 mph 1004.2mb 46f 49f
7:18 14 22 mph 1004.2mb 46f 49f
7:12 14 21 mph 1004.5mb 46f 49f
7:06 15 29 mph 1004.8mb 46f 49f
7:00 16 25 mph 1004.7mb 46f 49f
6:54 14 23 mph 1004.7mb 46f 49f
6:48 16 22 mph 1004.7mb 46f 49f
6:36 14 23 mph 1005mb 46f 49f
6:30 14 20 mph 1005.1mb 46f 49f
6:24 16 23 mph 1005.4mb 46f 49f
6:18 9 16 mph 1005.5mb 46f 49f
6:12 10 17 mph 1005.6mb 46f 49f
6:06 13 21 mph 1005.8mb 46f 50f
6:00 8 11 mph 1005.7mb 46f 49f
5:54 8 18 mph 1005.9mb 46f 48f
5:48 10 16 mph 1006.1mb 46f 49f
5:36 11 18 mph 1006.5mb 46f 49f
5:30 14 22 mph 1006.7mb 46f 50f
5:24 13 17 mph 1006.7mb 46f 49f
5:18 10 15 mph 1006.8mb 46f 49f
5:12 8 15 mph 1007mb 46f 49f
5:06 9 13 mph 1007.1mb 46f 49f
5:00 5 9 mph 1007.1mb 46f 49f
4:54 3 5 mph 1007.2mb 46f 49f
4:48 5 6 mph 1007.5mb 46f 49f
4:36 2 5 mph 1007.6mb 46f 48f
4:30 5 6 mph 1007.4mb 46f 48f
4:24 7 10 mph 1007.5mb 46f 48f
4:18 9 14 mph 1007.6mb 46f 48f
4:12 13 17 mph 1007.8mb 46f 48f
4:06 9 13 mph 1007.9mb 46f 48f
4:00 5 8 mph 1008mb 46f 47f
3:54 1 5 mph 1008.3mb 46f 46f
3:48 5 8 mph 1007.9mb 46f 46f
3:36 3 6 mph 1008.7mb 46f 46f
3:30 3 6 mph 1008.9mb 46f 46f
3:24  -  2 mph 1009.2mb 46f 46f
3:18 1 6 mph 1009.6mb 46f 46f
3:12 3 7 mph 1009.8mb 46f 46f
3:06  -  2 mph 1009.9mb 46f 46f
3:00  -  2 mph 1009.9mb 46f 46f
2:54 1 3 mph 1009.9mb 46f 46f
2:48 3 7 mph 1009.6mb 46f 46f
2:36 1 3 mph 1009.9mb 46f 47f
2:30 1 3 mph 1009.8mb 46f 47f
2:24 2 3 mph 1010.1mb 46f 47f
2:18 1 3 mph 1010.1mb 46f 47f
2:12 1 3 mph 1010.2mb 46f 46f
2:06 3 6 mph 1010.2mb 46f 47f
2:00 5 7 mph 1010.3mb 46f 47f
1:54 5 8 mph 1010.2mb 46f 47f
1:48 9 11 mph 1010.2mb 46f 47f
1:36 5 9 mph 1010mb 46f 49f
1:30 1 3 mph 1010mb 46f 49f
1:24 1 2 mph 1010.3mb 46f 49f
1:18 2 5 mph 1010.1mb 46f 48f
1:12 5 7 mph 1010.1mb 46f 48f
1:06 6 7 mph 1010.1mb 46f 49f
1:00 6 10 mph 1010.2mb 46f 49f
12:54 7 9 mph 1010.3mb 46f 49f
12:48 7
mph
1010.3mb 46f 49f
12:36 5 8 mph 1010.7mb 46f 49f
12:30 9 11 mph 1010.6mb 46f 49f
12:24 6 7 mph 1010.8mb 46f 49f
12:18 6 10 mph 1010.8mb 46f 49f
12:12 8 11 mph 1010.8mb 46f 49f
12:06 7 11 mph 1010.8mb 46f 49f
12:00 6 10 mph 1010.8mb 46f 49f
Seg 01/16 11:54 6 10 mph 1011mb 46f 49f
11:48 7 10 mph 1011.1mb 46f 49f
11:36 9 14 mph 1011.2mb 46f 49f
11:30 8 11 mph 1011.2mb 46f 49f
11:24 7 8 mph 1011.3mb 46f 49f
11:18 7 11 mph 1011.5mb 46f 49f
11:12 8 10 mph 1011.5mb 46f 49f
11:06 7 11 mph 1011.6mb 46f 49f
11:00 7 10 mph 1011.6mb 46f 48f
10:54 6 10 mph 1011.7mb 46f 48f
10:48 6 7 mph 1011.7mb 46f 48f
10:36 5 7 mph 1011.9mb 46f 47f
10:30 3 7 mph 1012mb 46f 47f
10:24 5 7 mph 1012.1mb 46f 47f
10:18 6 10 mph 1012.1mb 46f 47f
10:12 7 11 mph 1012.2mb 46f 46f
10:06 5 6 mph 1012.2mb 46f 45f
10:00 6 7 mph 1012.4mb 46f 45f
9:54 5 6 mph 1012.9mb 46f 45f
9:48 7 9 mph 1012.9mb 46f 45f
9:36 7 9 mph 1013.2mb 46f 45f
9:30 8 10 mph 1013.3mb 46f 45f
9:24 7 9 mph 1013.2mb 46f 44f
9:18 7 8 mph 1013.5mb 46f 44f
9:12 6 8 mph 1013.6mb 46f 44f
9:06 6
mph
1013.8mb 46f 44f
9:00 5 8 mph 1013.8mb 46f 44f
8:54 6 7 mph 1013.8mb 46f 44f
8:48 5 6 mph 1014.1mb 46f 44f
8:36 2 5 mph 1014.4mb 46f 43f
8:30 3 6 mph 1014.3mb 46f 43f
8:24 3 5 mph 1014.2mb 46f 43f
8:18 6 7 mph 1014mb 46f 43f
8:12 6 8 mph 1013.9mb 46f 43f
8:06 7 9 mph 1013.7mb 46f 43f
8:00 8 9 mph 1013.9mb 46f 43f
7:54 8 9 mph 1013.9mb 46f 43f
7:48 6 9 mph 1013.9mb 46f 43f
7:36 7 10 mph 1013.8mb 46f 42f
7:30 6 8 mph 1014mb 46f 42f
7:24 6 7 mph 1014.1mb 46f 43f
7:18 5 6 mph 1014.4mb 46f 42f
7:12 2 5 mph 1014.2mb 46f 42f
7:06 2 6 mph 1014.5mb 46f 42f
7:00 2 9 mph 1014.7mb 46f 42f
6:54 6 7 mph 1014.8mb 46f 42f
6:48 5 9 mph 1015.2mb 46f 42f
6:36 2 5 mph 1015.3mb 46f 43f
6:30 6 9 mph 1015.1mb 46f 43f
6:24 2 7 mph 1015.2mb 46f 43f
6:18 3 8 mph 1015.1mb 46f 42f
6:12 3 7 mph 1015.1mb 46f 42f
6:06 2 7 mph 1015.1mb 46f 42f
6:00 2 8 mph 1015.2mb 46f 42f
5:54 3 7 mph 1015.1mb 46f 42f
5:48 1 6 mph 1015.1mb 46f 43f
5:36  -  2 mph 1015.3mb 46f 44f
5:30 1 2 mph 1015.2mb 46f 44f
5:24 1 2 mph 1014.8mb 46f 44f
5:18 1 2 mph 1014.6mb 46f 45f
5:12 1 3 mph 1014.4mb 46f 45f
5:06 3 5 mph 1014mb 46f 44f
5:00 3 5 mph 1014.1mb 46f 44f
4:54 2 3 mph 1014.1mb 46f 44f
4:48 2 3 mph 1014.3mb 46f 44f
4:36 2 6 mph 1014.3mb 46f 44f
4:30 2 5 mph 1014.3mb 46f 44f
4:24 1 5 mph 1014.6mb 46f 44f
4:18 3 5 mph 1014.7mb 46f 44f
4:12  -  1 mph 1015mb 46f 44f
4:06 1 2 mph 1015.2mb 46f 44f
4:00 1 2 mph 1015.4mb 46f 44f
3:36  -  2 mph 1015.4mb 46f 45f
3:30  -  2 mph 1015.5mb 46f 45f
3:24  -  2 mph 1015.4mb 46f 45f
3:18 1 5 mph 1015.4mb 46f 45f
3:12 1 2 mph 1015.5mb 46f 45f
3:06 2 5 mph 1015.7mb 46f 45f
3:00 2 3 mph 1015.8mb 46f 45f
2:54 2 5 mph 1016mb 46f 45f
2:48 3 5 mph 1016.2mb 46f 45f
2:36  -  1 mph 1016.3mb 46f 45f
2:30  -  2 mph 1016.3mb 46f 45f
2:24  -  2 mph 1016.5mb 46f 44f
2:18 2 3 mph 1016.4mb 46f 44f
2:12 2 3 mph 1016.3mb 46f 44f
2:06 1 3 mph 1016.5mb 46f 44f
2:00 3 6 mph 1016.5mb 46f 44f
1:54 5 6 mph 1016.7mb 46f 44f
1:48 3 5 mph 1016.9mb 46f 44f
1:36 3 5 mph 1017.2mb 46f 44f
1:30 2 3 mph 1017.6mb 46f 44f
1:24 1 2 mph 1017.7mb 46f 44f
1:18 2
mph
1017.8mb 46f 43f
1:12 2
mph
1017.8mb 46f 43f
1:06  -  1 mph 1017.9mb 46f 44f
1:00  -  2 mph 1018.1mb 46f 44f
12:54  -  1 mph 1018.4mb 46f 43f
12:48 2 5 mph 1018.6mb 46f 43f
12:36 2 5 mph 1019mb 46f 43f
12:30 3 6 mph 1019.1mb 46f 43f
12:24 6 7 mph 1019.1mb 46f 42f
12:18 7 8 mph 1019mb 46f 42f
12:12 6 7 mph 1019.1mb 46f 42f
12:06 6 7 mph 1019.3mb 46f 42f
12:00 3 6 mph 1019.6mb 46f 42f
11:54 3 5 mph 1019.9mb 46f 42f
11:48 3 6 mph 1020.1mb 46f 42f
11:36 6 8 mph 1020.2mb 46f 42f
11:30 6 9 mph 1020.3mb 46f 42f
11:24 3 7 mph 1020.6mb 46f 42f
11:18 5 7 mph 1020.7mb 46f 42f
11:12 3 6 mph 1020.8mb 46f 42f
11:06 6 9 mph 1020.9mb 46f 41f
11:00 7 9 mph 1020.9mb 46f 41f
10:54 7 9 mph 1021.1mb 46f 41f
10:48 9 11 mph 1021.1mb 46f 41f
10:36 7 10 mph 1021.2mb 46f 41f
10:30 6 7 mph 1021.2mb 46f 41f
10:24 6 8 mph 1021.2mb 46f 41f
10:18 5 6 mph 1021.2mb 46f 41f
10:12 5 6 mph 1021.2mb 46f 40f
10:06 5 7 mph 1021.2mb 46f 40f
10:00 5 7 mph 1021.2mb 46f 40f
9:54 5 6 mph 1021.4mb 46f 40f
9:48 5 6 mph 1021.5mb 46f 40f
9:36 5 6 mph 1021.6mb 46f 40f
9:30 5 6 mph 1021.6mb 46f 40f
9:24 3 6 mph 1022mb 46f 40f
9:18 3 6 mph 1021.9mb 46f 40f
9:12 6 7 mph 1021.9mb 46f 40f
9:06 5 6 mph 1021.8mb 46f 40f
9:00 5 8 mph 1021.8mb 46f 40f
8:54 7 9 mph 1021.6mb 46f 40f
8:48 7 9 mph 1021.6mb 46f 40f
8:36 8 9 mph 1021.7mb 46f 40f
8:30 8 10 mph 1021.7mb 46f 40f
8:24 6 8 mph 1021.7mb 46f 40f
8:18 5 6 mph 1022mb 46f 40f
8:12 3 6 mph 1022.2mb 46f 40f
8:06 3
mph
1022.3mb 46f 40f
8:00 2 5 mph 1022.3mb 46f 40f
7:54 3
mph
1022.2mb 46f 40f
7:48 3
mph
1022.4mb 46f 40f
7:36 3 5 mph 1022.3mb 46f 40f
7:30 3 5 mph 1022.3mb 46f 40f
7:24 3 5 mph 1022.4mb 46f 40f
7:18 5
mph
1022.5mb 46f 39f
7:12 5
mph
- - 39f
7:06 3 5 mph - - 39f
7:00 2 3 mph - - 39f
6:54 2 3 mph 1022.6mb 46f 38f
6:48 1 2 mph - - 38f
6:36  -  1 mph 1023mb 46f 38f
6:30  -  1 mph 1023.1mb 46f 38f
6:24  -  1 mph 1023.1mb 46f 37f
6:18  -  1 mph 1023mb 46f 38f
6:12  -  mph 1023.1mb 46f 37f
6:06  -  1 mph 1023.2mb 46f 37f
6:00  -  1 mph 1023.4mb 46f 37f
5:54  -  2 mph 1023.5mb 46f 37f
5:48  -  1 mph 1023.6mb 46f 37f
5:36 2 3 mph - - 37f
5:30 3
mph
1023.5mb 46f 37f
5:24 2
mph
1023.6mb 46f 38f
5:18  -  1 mph 1023.4mb 46f 39f
5:12  -  1 mph 1023.5mb 46f 39f
5:06  -  1 mph 1023.5mb 46f 38f
5:00  -  1 mph 1023.6mb 46f 39f
4:54  -  1 mph 1023.8mb 46f 38f
4:48  -  1 mph 1023.9mb 46f 39f
4:36  -  1 mph 1023.7mb 46f 38f
4:30  -  1 mph 1023.7mb 46f 38f
4:24  -  2 mph 1023.8mb 46f 38f
4:18 1 3 mph 1023.7mb 46f 38f
4:12 2 3 mph 1024mb 46f 39f
4:06 2
mph
1024.1mb 46f 38f
4:00  -  2 mph 1024.2mb 46f 39f
3:54 2
mph
1023.9mb 46f 39f
3:48  -  1 mph 1023.9mb 46f 39f
3:36 5 6 mph 1023.7mb 46f 39f
3:30 2 5 mph 1023.7mb 46f 38f
3:24  -  1 mph 1023.9mb 46f 38f
3:18  -  1 mph 1024.4mb 46f 37f
3:12  -  2 mph 1024.7mb 46f 37f
3:06  -  1 mph 1025mb 46f 37f
3:00 1 3 mph 1025mb 46f 37f
2:54 2
mph
1024.8mb 46f 38f
2:48  -  1 mph 1024.8mb 46f 38f
2:36  -  2 mph 1025.1mb 46f 37f
2:30  -  1 mph 1025.2mb 46f 37f
2:24  -  2 mph 1025mb 46f 38f
2:18  -  2 mph 1025.1mb 46f 37f
2:12 1 2 mph 1025.1mb 46f 37f
2:06  -  1 mph 1025.1mb 46f 37f
2:00  -  2 mph 1025.1mb 46f 37f
1:54 1 2 mph 1024.9mb 46f 37f
1:48 1 2 mph 1024.9mb 46f 37f
1:36  -  2 mph 1024.9mb 46f 37f
1:30 1 2 mph 1024.4mb 46f 38f
1:24 2
mph
1024.3mb 46f 38f
1:18 2 3 mph 1024.5mb 46f 39f
1:12 1 2 mph 1024.6mb 46f 39f
1:06  -  3 mph 1024.7mb 46f 39f
1:00 1 2 mph 1024.8mb 46f 39f
12:54 2 5 mph 1025mb 46f 39f
12:48 2 3 mph 1025mb 46f 39f
12:36 2 3 mph 1025.1mb 46f 38f
12:30  -  1 mph 1025.1mb 46f 38f
12:24 1
mph
1025.4mb 46f 38f
12:18  -  1 mph 1025.8mb 46f 37f
12:12  -  1 mph 1026.1mb 46f 37f
12:06  -  2 mph 1026.1mb 46f 38f
12:00  -  2 mph 1025.9mb 46f 37f
Dom 01/15 11:54 1 2 mph 1025.8mb 46f 37f
11:48 3
mph
1025.7mb 46f 37f
11:36  -  1 mph 1025.9mb 46f 37f
11:30  -  mph 1025.8mb 46f 37f
11:24  -  2 mph 1026mb 46f 37f
11:18 1 3 mph 1025.9mb 46f 37f
11:12 1 3 mph 1025.9mb 46f 37f
11:06 2 3 mph 1025.9mb 46f 37f
11:00 2 3 mph 1025.9mb 46f 37f
10:54 1 2 mph 1026.1mb 46f 36f
10:48 2 6 mph 1026.1mb 46f 36f
10:36 2 3 mph 1026mb 46f 36f
10:30 3 5 mph 1026mb 46f 37f
10:24  -  1 mph 1026.1mb 46f 37f
10:18  -  mph 1026mb 46f 36f
10:12  -  2 mph 1026.1mb 46f 36f
10:06  -  3 mph 1026.3mb 46f 36f
10:00 2 3 mph 1026.2mb 46f 36f
9:54 1 3 mph 1026.3mb 46f 36f
9:48  -  1 mph 1026.5mb 46f 37f
9:36  -  1 mph 1026.6mb 46f 36f
9:30 1 2 mph 1026.7mb 46f 36f
9:24  -  2 mph 1026.5mb 46f 36f
9:18  -  mph 1026.5mb 46f 36f
9:12 1 2 mph 1026.5mb 46f 36f
9:06  -  1 mph 1026.5mb 46f 36f
9:00  -  1 mph 1026.4mb 46f 36f
8:54  -  1 mph 1026.2mb 46f 36f
8:48  -  2 mph 1026.1mb 46f 36f
8:36  -  1 mph 1026mb 46f 36f
8:30  -  1 mph 1026mb 46f 36f
8:24 1 2 mph 1026mb 46f 36f
8:18 2
mph
1026.1mb 46f 36f
8:12  -  2 mph 1026.1mb 46f 36f
8:06 1 2 mph 1026mb 46f 36f
8:00 1 2 mph 1026.2mb 46f 36f
7:54 2
mph
1026.4mb 46f 37f
7:48 2 3 mph 1026.4mb 46f 36f
7:36  -  1 mph 1026.1mb 46f 37f
7:30  -  1 mph 1026.3mb 46f 37f
7:24  -  1 mph 1026.5mb 46f 38f
7:18  -  1 mph 1026.5mb 46f 38f
7:12  -  2 mph 1026.4mb 46f 38f
7:06 1 2 mph 1026.2mb 46f 37f
7:00  -  1 mph 1026.2mb 46f 37f
6:54  -  2 mph 1026.1mb 46f 37f
6:48  -  2 mph 1026.1mb 46f 38f
6:36  -  2 mph 1026.2mb 46f 38f
6:30 2
mph
1026mb 46f 38f
6:24  -  1 mph 1026mb 46f 38f
6:18  -  1 mph 1025.9mb 46f 37f
6:12  -  5 mph 1025.9mb 46f 38f
6:06 3 5 mph 1025.8mb 46f 38f
6:00 3 5 mph 1025.8mb 46f 39f
5:54 3 6 mph 1025.8mb 46f 39f
5:48 2 5 mph 1025.9mb 46f 39f
5:36  -  1 mph 1025.9mb 46f 38f
5:30  -  1 mph 1025.9mb 46f 39f
5:24  -  1 mph 1026mb 46f 38f
5:18  -  1 mph 1026mb 46f 38f
5:12  -  mph 1026.1mb 46f 38f
5:06  -  1 mph 1026.1mb 46f 39f
5:00  -  1 mph 1026.2mb 46f 39f
4:54  -  mph 1026.1mb 46f 39f
4:48  -  mph 1026mb 46f 39f
4:36  -  mph 1026.2mb 46f 40f
4:30  -  1 mph 1026.1mb 46f 40f
4:24  -  1 mph 1026.1mb 46f 40f
4:18  -  1 mph 1026.2mb 46f 41f
4:12  -  2 mph 1026.3mb 46f 41f
4:06 1 2 mph 1026.3mb 46f 41f
4:00 1 2 mph 1026.3mb 46f 41f
3:54 2 3 mph 1026.3mb 46f 40f
3:48 1 3 mph 1026.4mb 46f 40f
3:36 1 3 mph 1026.2mb 46f 41f
3:30 1 3 mph 1026.2mb 46f 41f
3:24 2 3 mph 1026.2mb 46f 42f
3:18 2 3 mph 1026.2mb 46f 42f
3:12 2
mph
1026.2mb 46f 42f
3:06 1 3 mph 1026.1mb 46f 42f
3:00 2 5 mph 1026mb 46f 41f
2:54 3 6 mph 1025.9mb 46f 41f
2:48 2 7 mph 1025.7mb 46f 41f
2:36 5 6 mph 1025.8mb 46f 41f
2:30 5 6 mph 1025.8mb 46f 41f
2:24 3 6 mph 1025.9mb 46f 41f
2:18 3 5 mph 1025.9mb 46f 41f
2:12 5 6 mph 1025.9mb 46f 41f
2:06 5
mph
1025.9mb 46f 41f
2:00 3 6 mph 1025.7mb 46f 41f
1:54 1 3 mph 1025.7mb 46f 42f
1:48  -  2 mph 1025.8mb 46f 41f
1:36 2 3 mph 1025.7mb 46f 41f
1:30 1 3 mph 1025.6mb 46f 41f
1:24  -  1 mph 1025.6mb 46f 42f
1:18 1 2 mph 1025.7mb 46f 41f
1:12 1 2 mph 1025.6mb 46f 41f
1:06 2 3 mph 1025.7mb 46f 41f
1:00 2 5 mph 1025.8mb 46f 40f
12:54 3 5 mph 1025.8mb 46f 40f
12:48 3 5 mph 1025.9mb 46f 40f
12:36 3 5 mph 1025.9mb 46f 40f
12:30 3 5 mph 1026.1mb 46f 40f
12:24 3 5 mph 1026.1mb 46f 39f
12:18 3 5 mph 1026.1mb 46f 40f
12:12 3 5 mph 1026.2mb 46f 40f
12:06 3 6 mph 1026.1mb 46f 40f
12:00 5 6 mph 1026.2mb 46f 40f
11:54 2 5 mph 1026.4mb 46f 40f
11:48 2 5 mph 1026.5mb 46f 40f
11:36 3 5 mph 1026.5mb 46f 39f
11:30 3 5 mph 1026.6mb 46f 39f
11:24 2 3 mph 1026.7mb 46f 39f
11:18 3 5 mph 1026.7mb 46f 39f
11:12 2 3 mph 1026.8mb 46f 39f
11:06 3 5 mph 1026.7mb 46f 39f
11:00 1 3 mph 1026.7mb 46f 39f
10:54 2 3 mph 1026.7mb 46f 39f
10:48  -  2 mph 1026.8mb 46f 39f
10:36  -  2 mph 1026.8mb 46f 40f
10:30 2 3 mph 1026.8mb 46f 39f
10:24 3 5 mph 1026.9mb 46f 39f
10:18 3 5 mph 1027mb 46f 38f
10:12 5
mph
1026.9mb 46f 38f
10:06 5
mph
1026.8mb 46f 38f
10:00 3 5 mph 1026.7mb 46f 38f
9:54 5
mph
1026.7mb 46f 38f
9:48 3 5 mph 1026.7mb 46f 38f
9:36  -  3 mph 1026.7mb 46f 39f
9:30 2 3 mph 1026.6mb 46f 38f
9:24 2 3 mph 1026.5mb 46f 38f
9:18 1 2 mph 1026.5mb 46f 38f
9:12 1 2 mph 1026.3mb 46f 38f
9:06  -  2 mph 1026.2mb 46f 36f
9:00 1 2 mph 1026.2mb 46f 35f